Time;durP1;ratioP1;P1;durP2;ratioP2;P2;SDS_P1;SDS_P2;PMS_P1;PMS_P2;Temp;Humidity;BMP_temperature;BMP_pressure;BME280_temperature;BME280_humidity;BME280_pressure;Samples;Min_cycle;Max_cycle;Signal;HPM_P1;HPM_P2
2023/01/06 00:01:45;;;;;;;41.88;18.45;;;12.10;99.90;;;;;;5034895;28;96259;-77
2023/01/06 00:04:12;;;;;;;37.13;18.52;;;12.10;99.90;;;;;;5017976;28;92474;-76
2023/01/06 00:06:39;;;;;;;36.25;18.52;;;12.10;99.90;;;;;;5036251;28;92461;-76
2023/01/06 00:09:06;;;;;;;36.08;18.75;;;12.10;99.90;;;;;;5036188;28;93179;-76
2023/01/06 00:11:37;;;;;;;41.50;19.55;;;12.10;99.90;;;;;;5001390;28;93019;-76
2023/01/06 00:14:04;;;;;;;35.40;17.75;;;12.10;99.90;;;;;;5036553;28;92667;-76
2023/01/06 00:16:37;;;;;;;42.28;18.27;;;12.10;99.90;;;;;;5018236;28;93541;-76
2023/01/06 00:19:04;;;;;;;34.70;18.02;;;12.10;99.90;;;;;;5017405;28;96746;-76
2023/01/06 00:21:34;;;;;;;40.20;20.75;;;12.00;99.90;;;;;;5017904;28;92882;-76
2023/01/06 00:24:04;;;;;;;34.60;18.10;;;12.00;99.90;;;;;;5018575;28;92526;-76
2023/01/06 00:26:31;;;;;;;38.25;17.13;;;12.10;99.90;;;;;;5034192;28;95902;-76
2023/01/06 00:28:58;;;;;;;35.70;18.45;;;12.10;99.90;;;;;;5034262;28;95461;-76
2023/01/06 00:31:26;;;;;;;36.53;18.42;;;12.10;99.90;;;;;;5017425;28;92438;-76
2023/01/06 00:33:56;;;;;;;36.83;18.38;;;12.00;99.90;;;;;;5000905;28;92531;-76
2023/01/06 00:36:24;;;;;;;37.28;19.55;;;12.10;99.90;;;;;;5017223;28;95923;-76
2023/01/06 00:38:52;;;;;;;34.08;18.33;;;12.00;99.90;;;;;;5035847;28;93500;-76
2023/01/06 00:44:06;;;;;;;38.47;19.70;;;12.10;99.90;;;;;;5017970;28;91823;-76
2023/01/06 00:46:34;;;;;;;37.47;19.00;;;12.00;99.90;;;;;;5000694;28;96230;-75
2023/01/06 00:49:04;;;;;;;42.42;19.35;;;12.00;99.90;;;;;;5001218;28;95622;-76
2023/01/06 00:51:38;;;;;;;35.30;18.08;;;12.10;99.90;;;;;;4999825;28;94924;-76
2023/01/06 00:54:10;;;;;;;38.05;19.15;;;12.10;99.90;;;;;;5017971;28;92461;-76
2023/01/06 00:56:45;;;;;;;39.03;20.23;;;12.10;99.90;;;;;;4999676;28;95852;-76
2023/01/06 00:59:14;;;;;;;34.67;18.88;;;12.10;99.90;;;;;;5035594;28;92508;-76
2023/01/06 01:01:45;;;;;;;33.85;18.88;;;12.10;99.90;;;;;;5035798;28;92494;-76
2023/01/06 01:04:15;;;;;;;31.02;19.40;;;12.10;99.90;;;;;;5017634;28;92438;-76
2023/01/06 01:06:44;;;;;;;36.75;20.23;;;12.10;99.90;;;;;;5017120;28;95879;-76
2023/01/06 01:09:16;;;;;;;37.85;18.67;;;12.10;99.90;;;;;;4985444;28;95812;-76
2023/01/06 01:14:29;;;;;;;31.05;18.80;;;12.10;99.90;;;;;;5020468;28;92411;-76
2023/01/06 01:16:57;;;;;;;35.85;18.88;;;12.10;99.90;;;;;;4998234;28;99559;-76
2023/01/06 01:19:28;;;;;;;33.70;18.33;;;12.10;99.90;;;;;;5016139;28;97804;-76
2023/01/06 01:21:56;;;;;;;30.80;18.52;;;12.10;99.90;;;;;;5017391;28;93002;-76
2023/01/06 01:24:23;;;;;;;28.85;18.02;;;12.10;99.90;;;;;;5016682;28;92362;-75
2023/01/06 01:26:50;;;;;;;30.00;17.83;;;12.10;99.90;;;;;;5017011;28;93301;-76
2023/01/06 01:29:19;;;;;;;27.92;17.35;;;12.20;99.90;;;;;;5000265;28;95782;-76
2023/01/06 01:31:48;;;;;;;29.25;17.58;;;12.20;99.90;;;;;;5016996;28;92406;-77
2023/01/06 01:34:16;;;;;;;24.30;15.80;;;12.10;99.90;;;;;;5017498;28;91752;-77
2023/01/06 01:36:45;;;;;;;29.52;16.80;;;12.10;99.90;;;;;;5017010;28;93704;-77
2023/01/06 01:39:14;;;;;;;29.33;17.77;;;12.10;99.90;;;;;;5034994;28;93090;-75
2023/01/06 01:41:42;;;;;;;23.73;14.82;;;12.10;99.90;;;;;;5015515;28;95022;-77
2023/01/06 01:44:46;;;;;;;22.27;14.05;;;12.10;99.90;;;;;;5016820;28;92446;-76
2023/01/06 01:47:39;;;;;;;22.60;13.13;;;12.10;99.90;;;;;;5016469;28;95662;-75
2023/01/06 01:50:22;;;;;;;20.60;12.90;;;12.10;99.90;;;;;;4999930;28;95446;-75
2023/01/06 01:52:57;;;;;;;19.15;12.90;;;12.10;99.90;;;;;;5000015;28;92486;-75
2023/01/06 01:55:27;;;;;;;16.50;11.20;;;12.00;99.90;;;;;;5016897;28;92707;-76
2023/01/06 01:58:25;;;;;;;19.88;10.82;;;12.00;99.90;;;;;;5034831;28;93170;-76
2023/01/06 02:00:54;;;;;;;15.63;10.60;;;12.10;99.90;;;;;;5031127;28;93067;-76
2023/01/06 02:03:23;;;;;;;19.25;10.40;;;12.00;99.90;;;;;;5034746;28;92394;-76
2023/01/06 02:06:03;;;;;;;16.42;10.48;;;12.10;99.90;;;;;;5034449;28;92447;-76
2023/01/06 02:08:49;;;;;;;13.30;10.57;;;12.10;99.90;;;;;;5034687;27;95694;-76
2023/01/06 02:11:16;;;;;;;15.77;10.95;;;12.00;99.90;;;;;;5003023;28;98086;-76
2023/01/06 02:13:50;;;;;;;17.95;9.95;;;12.00;99.90;;;;;;5038157;28;92471;-76
2023/01/06 02:16:26;;;;;;;14.88;9.45;;;12.10;99.90;;;;;;5020492;28;92539;-76
2023/01/06 02:19:01;;;;;;;18.15;10.60;;;12.10;99.90;;;;;;5019670;28;96432;-76
2023/01/06 02:21:46;;;;;;;16.20;9.95;;;12.10;99.90;;;;;;5037904;28;93302;-76
2023/01/06 02:24:50;;;;;;;14.80;9.40;;;12.00;99.90;;;;;;5020332;28;92508;-76
2023/01/06 02:27:55;;;;;;;12.85;9.68;;;12.10;99.90;;;;;;5007258;28;91762;-76
2023/01/06 02:30:34;;;;;;;;;;;12.00;99.90;;;;;;5038829;28;93232;-76
2023/01/06 02:33:30;;;;;;;17.23;8.30;;;11.90;99.90;;;;;;5021090;28;95160;-76
2023/01/06 02:36:18;;;;;;;13.52;8.73;;;11.90;99.90;;;;;;4989933;28;94817;-77
2023/01/06 02:38:54;;;;;;;12.15;7.80;;;12.00;99.90;;;;;;5019903;28;92518;-76
2023/01/06 02:41:44;;;;;;;11.50;7.05;;;12.00;99.90;;;;;;5036693;28;96054;-76
2023/01/06 02:44:35;;;;;;;10.50;7.57;;;12.00;99.90;;;;;;5003365;28;95959;-76
2023/01/06 02:47:27;;;;;;;13.15;7.50;;;12.00;99.90;;;;;;5038391;28;92502;-76
2023/01/06 02:49:58;;;;;;;13.07;7.90;;;12.00;99.90;;;;;;5038418;28;92760;-76
2023/01/06 02:52:45;;;;;;;12.30;7.80;;;11.90;99.90;;;;;;5037829;28;92344;-76
2023/01/06 02:55:41;;;;;;;12.20;8.02;;;11.90;99.90;;;;;;5020126;28;95417;-76
2023/01/06 02:58:43;;;;;;;10.50;7.22;;;12.00;99.90;;;;;;5003393;28;93509;-76
2023/01/06 03:01:18;;;;;;;14.73;7.75;;;12.00;99.90;;;;;;5003354;28;93003;-76
2023/01/06 03:03:49;;;;;;;11.27;7.30;;;11.90;99.90;;;;;;5001755;28;98199;-76
2023/01/06 03:06:24;;;;;;;12.57;6.47;;;11.90;99.90;;;;;;5002897;28;97852;-76
2023/01/06 03:08:54;;;;;;;11.25;7.03;;;12.00;99.90;;;;;;5019424;28;92456;-76
2023/01/06 03:11:25;;;;;;;10.68;6.85;;;12.00;99.90;;;;;;5019596;28;92482;-76
2023/01/06 03:14:01;;;;;;;10.45;6.82;;;12.00;99.90;;;;;;5019330;28;96389;-76
2023/01/06 03:16:29;;;;;;;9.45;6.35;;;12.00;99.90;;;;;;5018972;28;95709;-76
2023/01/06 03:18:57;;;;;;;11.02;7.32;;;12.00;99.90;;;;;;5002158;28;92439;-76
2023/01/06 03:21:33;;;;;;;11.27;5.82;;;12.00;99.90;;;;;;5019191;28;91918;-76
2023/01/06 03:24:00;;;;;;;9.98;6.55;;;12.00;99.90;;;;;;5019067;28;96005;-76
2023/01/06 03:26:27;;;;;;;10.60;6.55;;;12.00;99.90;;;;;;5002311;28;95694;-76
2023/01/06 03:28:54;;;;;;;10.43;5.70;;;12.00;99.90;;;;;;5001827;28;95023;-76
2023/01/06 03:31:59;;;;;;;12.05;6.40;;;12.00;99.90;;;;;;5019448;28;92514;-76
2023/01/06 03:34:36;;;;;;;;;;;12.00;99.90;;;;;;5019368;28;95879;-76
2023/01/06 03:37:21;;;;;;;7.00;5.65;;;11.90;99.90;;;;;;5020090;28;95632;-76
2023/01/06 03:39:54;;;;;;;9.65;6.60;;;11.80;99.90;;;;;;5019214;28;92892;-76
2023/01/06 03:45:25;;;;;;;9.15;6.38;;;11.90;99.90;;;;;;5018751;28;95567;-76
2023/01/06 03:48:17;;;;;;;6.80;6.13;;;12.00;99.90;;;;;;5019101;28;95109;-77
2023/01/06 03:50:49;;;;;;;7.70;6.30;;;12.00;99.90;;;;;;5019074;28;92560;-76
2023/01/06 03:53:29;;;;;;;7.43;6.70;;;11.90;99.90;;;;;;5018465;28;92547;-76
2023/01/06 03:56:16;;;;;;;8.43;6.32;;;11.90;99.90;;;;;;5017286;28;98653;-76
2023/01/06 03:58:51;;;;;;;7.47;6.78;;;12.00;99.90;;;;;;5035148;27;97765;-76
2023/01/06 04:01:20;;;;;;;7.82;6.97;;;11.90;99.90;;;;;;5002342;28;92471;-76
2023/01/06 04:03:52;;;;;;;10.07;7.63;;;12.00;99.90;;;;;;5019382;28;92624;-77
2023/01/06 04:06:21;;;;;;;10.02;7.47;;;12.00;99.90;;;;;;5002112;28;95613;-76
2023/01/06 04:08:48;;;;;;;9.63;8.15;;;11.90;99.90;;;;;;5001890;28;95321;-77
2023/01/06 04:14:01;;;;;;;11.43;8.18;;;11.90;99.90;;;;;;5004725;28;91720;-76
2023/01/06 04:16:29;;;;;;;10.57;9.13;;;11.90;99.90;;;;;;5018238;28;94873;-76
2023/01/06 04:18:56;;;;;;;11.63;8.52;;;11.90;99.90;;;;;;5017897;28;95495;-76
2023/01/06 04:21:23;;;;;;;9.30;8.40;;;11.90;99.90;;;;;;5000768;28;95013;-76
2023/01/06 04:23:50;;;;;;;11.13;9.25;;;11.90;99.90;;;;;;4985394;28;92541;-76
2023/01/06 04:26:17;;;;;;;11.57;10.23;;;11.90;99.90;;;;;;5018267;28;94762;-75
2023/01/06 04:28:48;;;;;;;12.90;10.82;;;11.90;99.90;;;;;;5017417;28;96027;-76
2023/01/06 04:31:15;;;;;;;13.55;11.05;;;11.90;99.90;;;;;;5001245;28;93165;-76
2023/01/06 04:33:43;;;;;;;15.10;12.02;;;11.90;99.90;;;;;;5017709;28;92501;-76
2023/01/06 04:36:11;;;;;;;11.95;10.73;;;11.90;99.90;;;;;;5017726;28;95740;-76
2023/01/06 04:38:42;;;;;;;12.20;10.73;;;11.90;99.90;;;;;;5018061;28;95984;-76
2023/01/06 04:41:09;;;;;;;13.00;10.40;;;11.90;99.90;;;;;;5017572;28;93126;-76
2023/01/06 04:43:36;;;;;;;13.80;10.05;;;11.80;99.90;;;;;;5035698;28;96672;-76
2023/01/06 04:46:03;;;;;;;14.05;10.95;;;11.80;99.90;;;;;;5016447;28;95782;-76
2023/01/06 04:48:30;;;;;;;10.80;9.70;;;11.80;99.90;;;;;;5017647;28;98426;-76
2023/01/06 04:51:05;;;;;;;11.98;10.77;;;11.90;99.90;;;;;;5018228;28;92460;-76
2023/01/06 04:53:37;;;;;;;10.95;9.80;;;11.90;99.90;;;;;;5017753;28;92459;-76
2023/01/06 04:56:07;;;;;;;11.60;10.48;;;11.90;99.90;;;;;;5036024;28;93463;-76
2023/01/06 04:58:35;;;;;;;10.75;9.65;;;11.90;99.90;;;;;;5000780;28;96569;-76
2023/01/06 05:01:04;;;;;;;12.73;10.23;;;11.90;99.90;;;;;;5018018;28;92530;-76
2023/01/06 05:03:31;;;;;;;10.50;9.43;;;11.90;99.90;;;;;;5001339;28;91676;-76
2023/01/06 05:06:03;;;;;;;11.43;9.65;;;11.90;99.90;;;;;;5035856;28;93351;-76
2023/01/06 05:08:31;;;;;;;11.43;9.32;;;11.90;99.90;;;;;;5000842;28;95373;-76
2023/01/06 05:11:03;;;;;;;10.38;8.85;;;11.90;99.90;;;;;;4999885;28;94869;-76
2023/01/06 05:13:31;;;;;;;10.32;8.82;;;11.90;99.90;;;;;;5017911;28;92491;-76
2023/01/06 05:15:58;;;;;;;11.25;8.85;;;11.90;99.90;;;;;;5017439;28;95623;-76
2023/01/06 05:18:25;;;;;;;9.52;8.60;;;11.90;99.90;;;;;;5017802;28;93399;-76
2023/01/06 05:20:53;;;;;;;10.88;8.65;;;11.90;99.90;;;;;;5035349;28;92511;-76
2023/01/06 05:23:20;;;;;;;11.15;8.82;;;11.90;99.90;;;;;;5035699;28;92444;-76
2023/01/06 05:25:51;;;;;;;8.45;7.68;;;11.90;99.90;;;;;;5035589;28;93305;-76
2023/01/06 05:28:18;;;;;;;7.45;6.80;;;11.90;99.90;;;;;;5036202;28;92204;-76
2023/01/06 05:30:46;;;;;;;7.95;7.20;;;11.90;99.90;;;;;;5035993;28;92421;-77
2023/01/06 05:33:13;;;;;;;7.72;6.85;;;11.90;99.90;;;;;;5017884;28;92431;-76
2023/01/06 05:35:40;;;;;;;7.50;6.50;;;11.90;99.90;;;;;;5015934;28;98510;-77
2023/01/06 05:38:07;;;;;;;7.40;6.22;;;12.00;99.90;;;;;;5017442;28;95207;-77
2023/01/06 05:40:34;;;;;;;6.47;5.80;;;12.00;99.90;;;;;;5017874;28;92526;-76
2023/01/06 05:43:01;;;;;;;9.57;5.35;;;12.00;99.90;;;;;;5001436;28;92560;-77
2023/01/06 05:45:28;;;;;;;6.20;4.85;;;11.90;99.90;;;;;;5021142;28;93301;-76
2023/01/06 05:47:56;;;;;;;6.30;4.25;;;11.90;99.90;;;;;;5038421;28;99640;-76
2023/01/06 05:50:23;;;;;;;5.55;4.72;;;12.00;99.90;;;;;;5039148;28;92508;-76
2023/01/06 05:52:50;;;;;;;4.93;4.47;;;12.00;99.90;;;;;;5004792;28;91814;-76
2023/01/06 05:55:17;;;;;;;6.03;4.03;;;12.00;99.90;;;;;;5020980;28;93201;-76
2023/01/06 05:57:44;;;;;;;4.43;4.00;;;12.00;99.90;;;;;;5004705;28;93068;-76
2023/01/06 06:00:12;;;;;;;6.40;3.88;;;12.00;99.90;;;;;;5002999;28;95710;-76
2023/01/06 06:02:39;;;;;;;4.55;4.15;;;12.00;99.90;;;;;;5039022;28;92438;-77
2023/01/06 06:05:06;;;;;;;3.92;3.65;;;12.00;99.90;;;;;;5020850;28;93583;-76
2023/01/06 06:07:33;;;;;;;4.80;4.40;;;12.00;99.90;;;;;;5020935;28;93100;-76
2023/01/06 06:10:00;;;;;;;7.03;5.38;;;12.00;99.90;;;;;;5038663;28;92369;-76
2023/01/06 06:12:27;;;;;;;4.93;4.53;;;12.00;99.90;;;;;;5004534;28;92541;-76
2023/01/06 06:14:55;;;;;;;5.53;5.03;;;12.00;99.90;;;;;;5020734;28;93447;-76
2023/01/06 06:17:23;;;;;;;5.32;4.57;;;12.10;99.90;;;;;;5038395;28;93005;-77
2023/01/06 06:19:50;;;;;;;8.73;5.63;;;12.00;99.90;;;;;;5020450;28;92573;-77
2023/01/06 06:22:17;;;;;;;5.53;5.03;;;12.00;99.90;;;;;;5038256;28;93387;-76
2023/01/06 06:24:44;;;;;;;6.88;5.00;;;12.00;99.90;;;;;;5018818;28;104479;-76
2023/01/06 06:27:11;;;;;;;5.93;5.32;;;12.10;99.90;;;;;;5038374;28;95295;-76
2023/01/06 06:29:38;;;;;;;6.50;4.65;;;12.10;99.90;;;;;;5003833;28;92395;-77
2023/01/06 06:32:05;;;;;;;6.03;5.30;;;12.10;99.90;;;;;;5020432;28;92468;-77
2023/01/06 06:34:32;;;;;;;5.93;5.40;;;12.10;99.90;;;;;;5020415;28;93228;-77
2023/01/06 06:36:59;;;;;;;6.28;4.72;;;12.10;99.90;;;;;;5038428;28;93113;-76
2023/01/06 06:39:26;;;;;;;5.60;5.10;;;12.10;99.90;;;;;;5003497;28;92505;-76
2023/01/06 06:41:53;;;;;;;6.30;5.00;;;12.10;99.90;;;;;;5021011;28;91751;-76
2023/01/06 06:44:20;;;;;;;6.05;5.30;;;12.10;99.90;;;;;;5019890;28;93309;-76
2023/01/06 06:46:47;;;;;;;5.90;5.35;;;12.10;99.90;;;;;;5020178;28;93241;-77
2023/01/06 06:49:14;;;;;;;5.40;5.00;;;12.10;99.90;;;;;;5002031;28;94964;-76
2023/01/06 06:51:41;;;;;;;5.40;4.43;;;12.10;99.90;;;;;;5003921;28;92489;-76
2023/01/06 06:54:08;;;;;;;5.78;5.13;;;12.10;99.90;;;;;;5003160;28;95534;-77
2023/01/06 06:56:35;;;;;;;5.30;4.72;;;12.10;99.90;;;;;;5003118;28;98267;-77
2023/01/06 06:59:02;;;;;;;5.32;4.85;;;12.00;99.90;;;;;;5038041;28;92464;-76
2023/01/06 07:01:31;;;;;;;6.45;5.47;;;12.10;99.90;;;;;;5037996;28;92493;-77
2023/01/06 07:03:58;;;;;;;5.93;5.15;;;12.10;99.90;;;;;;5037805;28;93215;-76
2023/01/06 07:06:30;;;;;;;5.88;4.80;;;12.10;99.90;;;;;;5020148;28;93377;-76
2023/01/06 07:08:57;;;;;;;7.03;5.63;;;12.10;99.90;;;;;;5019632;28;92588;-76
2023/01/06 07:11:24;;;;;;;6.82;5.53;;;12.00;99.90;;;;;;5019742;28;92414;-76
2023/01/06 07:13:51;;;;;;;5.72;5.22;;;12.00;99.90;;;;;;5018465;28;98308;-76
2023/01/06 07:16:21;;;;;;;6.47;5.88;;;12.00;99.90;;;;;;5002334;28;98493;-76
2023/01/06 07:18:48;;;;;;;6.70;5.63;;;12.00;99.90;;;;;;5019849;28;92405;-76
2023/01/06 07:21:19;;;;;;;6.10;5.47;;;12.00;99.90;;;;;;5037103;28;92477;-77
2023/01/06 07:23:46;;;;;;;6.07;5.28;;;12.00;99.90;;;;;;5003057;28;93266;-77
2023/01/06 07:26:15;;;;;;;6.10;5.32;;;12.00;99.90;;;;;;5002634;28;93167;-77
2023/01/06 07:28:42;;;;;;;7.40;5.65;;;12.00;99.90;;;;;;5019515;28;92504;-76
2023/01/06 07:31:09;;;;;;;5.75;5.18;;;11.90;99.90;;;;;;5037777;28;91760;-77
2023/01/06 07:33:36;;;;;;;5.90;5.32;;;11.90;99.90;;;;;;5019644;28;93459;-77
2023/01/06 07:36:03;;;;;;;9.85;5.97;;;11.80;99.90;;;;;;5002788;28;95687;-77
2023/01/06 07:38:30;;;;;;;7.00;6.40;;;11.80;99.90;;;;;;5017991;28;94804;-78
2023/01/06 07:41:01;;;;;;;6.13;5.03;;;11.80;99.90;;;;;;5002746;28;92552;-77
2023/01/06 07:43:28;;;;;;;6.45;5.75;;;11.80;99.90;;;;;;5018835;28;96071;-77
2023/01/06 07:45:55;;;;;;;7.20;6.50;;;11.80;99.90;;;;;;5018929;28;96011;-77
2023/01/06 07:48:22;;;;;;;6.47;5.70;;;11.80;99.90;;;;;;5019445;28;92577;-77
2023/01/06 07:50:49;;;;;;;7.85;6.43;;;11.80;99.90;;;;;;5019168;28;92517;-78
2023/01/06 07:53:16;;;;;;;8.40;5.97;;;11.80;99.90;;;;;;5018902;28;94767;-78
2023/01/06 07:55:52;;;;;;;6.93;5.82;;;11.80;99.90;;;;;;5037469;28;93037;-78
2023/01/06 07:58:22;;;;;;;7.18;6.47;;;11.80;99.90;;;;;;5002440;28;92587;-78
2023/01/06 08:00:50;;;;;;;7.32;6.63;;;11.70;99.90;;;;;;5019478;28;92627;-78
2023/01/06 08:03:16;;;;;;;7.75;6.55;;;11.70;99.90;;;;;;5017743;28;95925;-78
2023/01/06 08:05:44;;;;;;;7.55;5.72;;;11.70;99.90;;;;;;5001654;28;97766;-78
2023/01/06 08:08:11;;;;;;;7.10;6.40;;;11.70;99.90;;;;;;5019350;28;92406;-78
2023/01/06 08:10:40;;;;;;;6.68;6.07;;;11.70;99.90;;;;;;5019133;28;93098;-78
2023/01/06 08:13:08;;;;;;;6.30;5.80;;;11.70;99.90;;;;;;5002177;28;95971;-78
2023/01/06 08:15:36;;;;;;;5.97;5.38;;;11.70;99.90;;;;;;5001761;28;95948;-78
2023/01/06 08:18:03;;;;;;;5.20;4.43;;;11.70;99.90;;;;;;5018651;28;92452;-78
2023/01/06 08:20:30;;;;;;;3.40;3.17;;;11.80;99.90;;;;;;5001857;28;92462;-78
2023/01/06 08:22:57;;;;;;;4.57;3.13;;;11.70;99.90;;;;;;5018959;28;93330;-78
2023/01/06 08:25:24;;;;;;;2.67;2.47;;;11.70;99.90;;;;;;5001402;28;95502;-78
2023/01/06 08:27:51;;;;;;;5.40;2.60;;;11.80;99.90;;;;;;5000989;28;94794;-78
2023/01/06 08:30:20;;;;;;;3.92;2.88;;;11.80;99.90;;;;;;5001775;28;92458;-78
2023/01/06 08:32:48;;;;;;;4.40;2.42;;;11.80;99.90;;;;;;5018610;28;93960;-78
2023/01/06 08:35:15;;;;;;;3.17;2.17;;;11.80;99.90;;;;;;5036599;28;93309;-78
2023/01/06 08:37:42;;;;;;;4.00;1.90;;;11.80;99.90;;;;;;5018598;28;92560;-78
2023/01/06 08:40:10;;;;;;;3.22;1.60;;;11.70;99.90;;;;;;5018688;28;92543;-78
2023/01/06 08:42:37;;;;;;;2.88;1.70;;;11.70;99.90;;;;;;5036186;28;93282;-78
2023/01/06 08:45:04;;;;;;;2.25;1.40;;;11.60;99.90;;;;;;5002013;28;95723;-78
2023/01/06 08:47:32;;;;;;;2.58;1.77;;;11.50;99.90;;;;;;4985347;28;92526;-78
2023/01/06 08:49:59;;;;;;;3.22;1.55;;;11.40;99.90;;;;;;5002405;28;92533;-78
2023/01/06 08:52:26;;;;;;;1.92;1.35;;;11.30;99.90;;;;;;5000252;28;98359;-78
2023/01/06 08:54:53;;;;;;;3.15;1.70;;;11.30;99.90;;;;;;5036329;28;94261;-78
2023/01/06 08:57:20;;;;;;;3.53;1.77;;;11.20;99.90;;;;;;5017865;28;92446;-78
2023/01/06 08:59:47;;;;;;;2.72;1.35;;;11.10;99.90;;;;;;5036403;28;92440;-78
2023/01/06 09:02:14;;;;;;;4.43;2.25;;;11.10;99.90;;;;;;5018025;28;93146;-78
2023/01/06 09:04:41;;;;;;;1.77;1.10;;;11.10;99.90;;;;;;5018183;28;93474;-77
2023/01/06 09:07:08;;;;;;;4.90;1.40;;;11.10;99.90;;;;;;5002095;28;92447;-77
2023/01/06 09:09:35;;;;;;;4.55;1.10;;;11.10;99.90;;;;;;5001529;28;91748;-77
2023/01/06 09:12:03;;;;;;;2.20;1.02;;;11.10;99.90;;;;;;5018055;28;93333;-78
2023/01/06 09:14:30;;;;;;;2.85;1.23;;;11.10;99.90;;;;;;5017902;28;92732;-77
2023/01/06 09:16:57;;;;;;;3.33;1.00;;;11.00;99.90;;;;;;5016909;28;94930;-77
2023/01/06 09:19:24;;;;;;;3.55;1.35;;;11.00;99.90;;;;;;5034431;28;92462;-78
2023/01/06 09:21:51;;;;;;;4.75;1.10;;;11.00;99.90;;;;;;5001156;28;95846;-78
2023/01/06 09:24:18;;;;;;;3.00;1.23;;;11.00;99.90;;;;;;5001032;28;96556;-77
2023/01/06 09:26:45;;;;;;;2.05;1.00;;;11.00;99.90;;;;;;5035757;28;92516;-77
2023/01/06 09:29:12;;;;;;;2.75;1.10;;;11.00;99.90;;;;;;5000864;28;92508;-77
2023/01/06 09:31:39;;;;;;;6.32;1.52;;;11.00;99.90;;;;;;5000986;28;95882;-77
2023/01/06 09:34:06;;;;;;;3.78;1.40;;;11.10;99.90;;;;;;5035967;28;93250;-77
2023/01/06 09:36:33;;;;;;;3.30;0.90;;;11.10;99.90;;;;;;5017885;28;92977;-77
2023/01/06 09:39:09;;;;;;;1.60;1.00;;;11.00;99.90;;;;;;5004291;28;92519;-77
2023/01/06 09:42:00;;;;;;;5.25;1.17;;;11.00;99.90;;;;;;5015987;28;96712;-77
2023/01/06 09:44:48;;;;;;;2.47;1.00;;;11.10;99.90;;;;;;5017750;28;95313;-77
2023/01/06 09:47:19;;;;;;;3.10;1.27;;;11.00;99.90;;;;;;5036240;28;92495;-77
2023/01/06 09:49:52;;;;;;;4.57;1.00;;;11.00;99.90;;;;;;5017585;28;93097;-77
2023/01/06 09:52:32;;;;;;;3.87;1.00;;;11.00;99.90;;;;;;5017864;28;93203;-77
2023/01/06 09:55:10;;;;;;;3.38;0.90;;;11.00;99.90;;;;;;5018067;28;92640;-77
2023/01/06 09:57:44;;;;;;;4.60;1.00;;;11.00;99.90;;;;;;5017903;28;93283;-77
2023/01/06 10:00:28;;;;;;;4.57;1.00;;;11.00;99.90;;;;;;5036028;28;91800;-77
2023/01/06 10:02:56;;;;;;;3.17;1.10;;;11.00;99.90;;;;;;5035385;28;93431;-77
2023/01/06 10:05:48;;;;;;;5.18;1.08;;;11.00;99.90;;;;;;5017563;28;93267;-77
2023/01/06 10:08:21;;;;;;;4.78;1.00;;;11.10;99.90;;;;;;5016173;28;95482;-76
2023/01/06 10:10:58;;;;;;;7.40;1.40;;;11.10;99.90;;;;;;5016742;28;92557;-77
2023/01/06 10:13:50;;;;;;;5.22;1.25;;;11.20;99.90;;;;;;5016861;28;95926;-76
2023/01/06 10:16:33;;;;;;;4.40;0.93;;;11.20;99.90;;;;;;5017121;28;94552;-76
2023/01/06 10:19:25;;;;;;;5.38;1.30;;;11.20;99.90;;;;;;5034977;28;92358;-77
2023/01/06 10:22:14;;;;;;;5.00;0.90;;;11.20;99.90;;;;;;5034952;28;92486;-77
2023/01/06 10:24:47;;;;;;;6.13;1.00;;;11.20;99.90;;;;;;5034928;28;93618;-77
2023/01/06 10:27:35;;;;;;;5.53;0.93;;;11.20;99.90;;;;;;5033931;28;95809;-78
2023/01/06 10:30:14;;;;;;;5.60;1.10;;;11.30;99.90;;;;;;5037322;28;92997;-77
2023/01/06 10:32:42;;;;;;;6.38;1.50;;;11.30;99.90;;;;;;5020216;28;92505;-77
2023/01/06 10:35:16;;;;;;;4.78;1.15;;;11.30;99.90;;;;;;5019330;28;95685;-77
2023/01/06 10:37:46;;;;;;;5.05;1.65;;;11.40;99.90;;;;;;5019767;28;97665;-76
2023/01/06 10:40:20;;;;;;;4.93;1.40;;;11.40;99.90;;;;;;5020221;28;92524;-76
2023/01/06 10:42:55;;;;;;;4.55;1.08;;;11.50;99.90;;;;;;5019912;28;93078;-76
2023/01/06 10:45:41;;;;;;;5.47;1.88;;;11.60;99.90;;;;;;5020821;28;92959;-76
2023/01/06 10:48:17;;;;;;;9.82;1.50;;;11.90;99.90;;;;;;5038568;28;93018;-77
2023/01/06 10:50:46;;;;;;;6.53;1.20;;;12.00;99.90;;;;;;5019981;28;92500;-77
2023/01/06 10:53:15;;;;;;;3.55;0.93;;;12.10;99.90;;;;;;5003700;28;91796;-77
2023/01/06 10:55:53;;;;;;;4.97;1.33;;;12.30;99.90;;;;;;5019470;28;95764;-76
2023/01/06 10:58:48;;;;;;;4.32;1.80;;;12.40;99.90;;;;;;5020371;28;93129;-77
2023/01/06 11:01:23;;;;;;;8.50;1.45;;;12.60;99.90;;;;;;5036872;28;94825;-77
2023/01/06 11:04:08;;;;;;;6.38;1.70;;;12.50;99.90;;;;;;5037837;28;92525;-77
2023/01/06 11:06:58;;;;;;;7.20;1.48;;;12.60;99.90;;;;;;5037943;28;94283;-77
2023/01/06 11:09:38;;;;;;;7.03;2.00;;;12.50;99.90;;;;;;5018480;28;96018;-77
2023/01/06 11:12:19;;;;;;;7.03;1.55;;;12.50;99.90;;;;;;5038073;28;92470;-77
2023/01/06 11:14:56;;;;;;;6.97;1.38;;;12.60;99.90;;;;;;5020184;28;92898;-77
2023/01/06 11:17:24;;;;;;;11.27;1.58;;;12.50;99.90;;;;;;5037719;28;93194;-77
2023/01/06 11:20:23;;;;;;;5.53;1.10;;;12.50;99.90;;;;;;5015317;28;102679;-77
2023/01/06 11:22:50;;;;;;;7.00;1.35;;;12.60;99.90;;;;;;4987883;28;92580;-77
2023/01/06 11:25:23;;;;;;;5.13;1.10;;;12.50;99.90;;;;;;5017761;28;92543;-76
2023/01/06 11:28:08;;;;;;;7.15;1.50;;;12.60;99.90;;;;;;5016055;28;96010;-76
2023/01/06 11:30:48;;;;;;;4.97;1.38;;;12.60;99.90;;;;;;5017349;28;94308;-77
2023/01/06 11:33:19;;;;;;;5.70;1.35;;;12.60;99.90;;;;;;5017633;28;92466;-76
2023/01/06 11:35:47;;;;;;;8.48;1.58;;;12.70;99.90;;;;;;5016270;28;92406;-77
2023/01/06 11:38:17;;;;;;;5.63;1.48;;;12.70;99.90;;;;;;5017472;28;93348;-77
2023/01/06 11:40:50;;;;;;;7.63;1.65;;;12.80;99.90;;;;;;5016091;28;92989;-78
2023/01/06 11:43:38;;;;;;;4.07;1.10;;;12.90;99.90;;;;;;4982848;28;92491;-77
2023/01/06 11:46:08;;;;;;;7.80;1.77;;;12.90;99.90;;;;;;5032770;28;91694;-77
2023/01/06 11:48:41;;;;;;;7.78;1.58;;;12.90;99.90;;;;;;5017231;28;93425;-77
2023/01/06 11:51:09;;;;;;;5.70;1.50;;;12.90;99.90;;;;;;5017317;28;92994;-77
2023/01/06 11:53:37;;;;;;;5.45;1.42;;;12.90;99.90;;;;;;5014577;28;94917;-77
2023/01/06 11:56:17;;;;;;;8.10;1.65;;;12.90;99.90;;;;;;5015849;28;92957;-77
2023/01/06 11:58:54;;;;;;;6.28;1.40;;;12.80;99.90;;;;;;5016902;28;93320;-77
2023/01/06 12:01:58;;;;;;;9.52;1.92;;;12.70;99.90;;;;;;5016024;28;92657;-77
2023/01/06 12:04:37;;;;;;;7.28;1.90;;;12.70;99.90;;;;;;5017154;28;92546;-76
2023/01/06 12:07:16;;;;;;;8.00;1.27;;;12.60;99.90;;;;;;5016852;28;92432;-77
2023/01/06 12:09:47;;;;;;;7.88;1.63;;;12.70;99.90;;;;;;5015005;28;96128;-77
2023/01/06 12:12:20;;;;;;;7.40;1.77;;;12.60;99.90;;;;;;5017351;28;92263;-76
2023/01/06 12:14:47;;;;;;;9.65;1.50;;;12.60;99.90;;;;;;5015540;28;92587;-77
2023/01/06 12:17:29;;;;;;;6.28;1.52;;;12.60;99.90;;;;;;5016710;28;92512;-77
2023/01/06 12:20:00;;;;;;;8.63;1.20;;;12.60;99.90;;;;;;5022314;28;95578;-77
2023/01/06 12:22:41;;;;;;;9.32;1.77;;;12.40;99.90;;;;;;5018288;28;98317;-77
2023/01/06 12:25:17;;;;;;;7.90;1.80;;;12.40;99.90;;;;;;5037087;28;93070;-77
2023/01/06 12:27:52;;;;;;;6.70;1.95;;;12.40;99.90;;;;;;5037081;28;92838;-77
2023/01/06 12:30:36;;;;;;;8.38;1.55;;;12.30;99.90;;;;;;5036617;28;93463;-76
2023/01/06 12:33:18;;;;;;;5.80;1.25;;;12.30;99.90;;;;;;5018384;28;92925;-77
2023/01/06 12:35:51;;;;;;;6.95;1.90;;;12.20;99.90;;;;;;5018386;28;93049;-77
2023/01/06 12:38:33;;;;;;;6.32;1.60;;;12.10;99.90;;;;;;5019447;28;91651;-77
2023/01/06 12:41:08;;;;;;;8.77;1.60;;;12.10;99.90;;;;;;5035907;28;93145;-77
2023/01/06 12:43:40;;;;;;;4.78;1.52;;;12.00;99.90;;;;;;5036776;28;92889;-77
2023/01/06 12:46:18;;;;;;;6.22;1.73;;;11.90;99.90;;;;;;5016855;28;94889;-77
2023/01/06 12:49:16;;;;;;;8.88;1.45;;;11.90;99.90;;;;;;5036493;28;92366;-77
2023/01/06 12:51:48;;;;;;;7.43;1.58;;;11.90;99.90;;;;;;5018108;27;93477;-77
2023/01/06 12:54:21;;;;;;;5.97;1.50;;;11.80;99.90;;;;;;5018078;28;95655;-77
2023/01/06 12:56:48;;;;;;;6.87;1.73;;;11.90;99.90;;;;;;5036733;28;92646;-77
2023/01/06 12:59:32;;;;;;;8.00;1.50;;;11.90;99.90;;;;;;5018614;28;92480;-77
2023/01/06 13:02:19;;;;;;;8.93;2.03;;;11.90;99.90;;;;;;5017864;28;96165;-77
2023/01/06 13:05:10;;;;;;;4.95;1.17;;;11.90;99.90;;;;;;5018271;28;95190;-76
2023/01/06 13:07:52;;;;;;;5.40;1.50;;;12.00;99.90;;;;;;5036347;28;92459;-77
2023/01/06 13:10:30;;;;;;;7.90;1.63;;;12.00;99.90;;;;;;5018018;28;92522;-77
2023/01/06 13:13:21;;;;;;;9.13;1.65;;;12.10;99.90;;;;;;5016386;28;97258;-77
2023/01/06 13:15:49;;;;;;;7.57;1.88;;;12.20;99.90;;;;;;5017942;28;95334;-77
2023/01/06 13:18:35;;;;;;;7.50;2.13;;;12.20;99.90;;;;;;5017854;28;92505;-76
2023/01/06 13:21:09;;;;;;;12.57;2.47;;;12.20;99.90;;;;;;5017742;28;92456;-77